createdAt,value
2023-02-01T00:02:48.709Z,29.30
2023-02-01T00:05:54.516Z,30.50
2023-02-01T00:09:03.981Z,30.90
2023-02-01T00:12:11.201Z,30.15
2023-02-01T00:15:17.452Z,28.25
2023-02-01T00:18:16.682Z,28.90
2023-02-01T00:21:23.353Z,28.02
2023-02-01T00:24:29.574Z,29.40
2023-02-01T00:27:36.463Z,26.02
2023-02-01T00:30:34.548Z,26.40
2023-02-01T00:33:39.794Z,30.72
2023-02-01T00:36:45.951Z,37.88
2023-02-01T00:39:53.162Z,43.65
2023-02-01T00:42:59.040Z,35.23
2023-02-01T00:46:04.721Z,36.60
2023-02-01T00:49:10.716Z,37.00
2023-02-01T00:52:15.765Z,33.23
2023-02-01T00:55:21.373Z,30.85
2023-02-01T00:58:27.589Z,32.23
2023-02-01T01:01:36.686Z,28.47
2023-02-01T01:04:43.320Z,27.85
2023-02-01T01:07:50.168Z,33.58
2023-02-01T01:10:57.250Z,34.05
2023-02-01T01:14:04.810Z,36.17
2023-02-01T01:17:10.533Z,31.65
2023-02-01T01:20:16.800Z,39.50
2023-02-01T01:23:23.741Z,36.10
2023-02-01T01:26:35.684Z,29.25
2023-02-01T01:29:41.706Z,30.70
2023-02-01T01:32:48.004Z,30.62
2023-02-01T01:35:53.899Z,34.27
2023-02-01T01:39:00.594Z,35.38
2023-02-01T01:42:07.437Z,31.30
2023-02-01T01:45:23.026Z,33.08
2023-02-01T01:48:33.210Z,32.50
2023-02-01T01:54:47.746Z,31.52
2023-02-01T01:57:51.043Z,30.88
2023-02-01T02:00:43.665Z,29.67
2023-02-01T02:07:20.452Z,29.35
2023-02-01T02:10:28.154Z,29.15
2023-02-01T02:13:33.833Z,26.42
2023-02-01T02:17:04.147Z,25.95
2023-02-01T02:24:00.392Z,28.40
2023-02-01T02:27:17.483Z,29.12
2023-02-01T02:30:46.328Z,28.92
2023-02-01T02:34:18.742Z,27.52
2023-02-01T02:37:41.530Z,29.87
2023-02-01T02:41:09.288Z,27.40
2023-02-01T02:44:32.300Z,28.65
2023-02-01T02:48:03.403Z,29.98
2023-02-01T02:51:47.634Z,30.32
2023-02-01T02:54:58.205Z,28.75
2023-02-01T02:58:22.781Z,27.85
2023-02-01T03:01:46.646Z,29.18
2023-02-01T03:04:52.542Z,31.42
2023-02-01T03:08:33.308Z,28.40
2023-02-01T03:11:41.709Z,30.48
2023-02-01T03:14:47.456Z,31.50
2023-02-01T03:17:55.237Z,31.00
2023-02-01T03:21:02.831Z,29.32
2023-02-01T03:24:09.402Z,30.35
2023-02-01T03:27:22.456Z,29.98
2023-02-01T03:30:48.153Z,29.90
2023-02-01T03:33:53.546Z,28.77
2023-02-01T03:37:07.209Z,30.17
2023-02-01T03:40:20.687Z,30.77
2023-02-01T03:43:21.786Z,29.65
2023-02-01T03:49:53.446Z,30.20
2023-02-01T03:53:06.130Z,31.62
2023-02-01T03:56:11.435Z,30.57
2023-02-01T03:59:17.225Z,29.50
2023-02-01T04:02:24.127Z,31.97
2023-02-01T04:05:28.971Z,31.37
2023-02-01T04:08:36.273Z,31.57
2023-02-01T04:11:41.870Z,30.70
2023-02-01T04:14:47.794Z,27.87
2023-02-01T04:17:53.373Z,26.82
2023-02-01T04:20:59.018Z,28.32
2023-02-01T04:24:05.818Z,27.07
2023-02-01T04:27:12.698Z,29.48
2023-02-01T04:30:21.046Z,30.77
2023-02-01T04:33:26.765Z,35.17
2023-02-01T04:36:32.408Z,32.17
2023-02-01T04:39:32.451Z,36.60
2023-02-01T04:42:37.892Z,32.03
2023-02-01T04:45:42.400Z,34.30
2023-02-01T04:48:49.447Z,30.50
2023-02-01T04:51:55.315Z,29.40
2023-02-01T04:55:02.020Z,31.90
2023-02-01T04:58:08.606Z,32.30
2023-02-01T05:01:13.376Z,31.57
2023-02-01T05:04:19.196Z,50.10
2023-02-01T05:07:25.715Z,41.00
2023-02-01T05:10:30.659Z,37.13
2023-02-01T05:13:55.102Z,34.13
2023-02-01T05:17:00.271Z,43.83
2023-02-01T05:20:06.824Z,48.00
2023-02-01T05:23:13.729Z,42.05
2023-02-01T05:26:19.894Z,47.55
2023-02-01T05:29:26.881Z,46.28
2023-02-01T05:32:33.128Z,37.53
2023-02-01T05:35:39.957Z,33.90
2023-02-01T05:38:46.216Z,31.97
2023-02-01T05:41:51.154Z,34.78
2023-02-01T05:44:56.903Z,35.58
2023-02-01T05:48:02.421Z,37.23
2023-02-01T05:51:08.753Z,35.15
2023-02-01T05:54:14.521Z,35.85
2023-02-01T05:57:21.750Z,35.40
2023-02-01T06:00:28.915Z,33.33
2023-02-01T06:03:34.712Z,34.35
2023-02-01T06:06:40.408Z,32.80
2023-02-01T06:09:46.626Z,32.20
2023-02-01T06:12:54.184Z,37.75
2023-02-01T06:15:59.874Z,34.10
2023-02-01T06:19:06.201Z,38.83
2023-02-01T06:22:14.334Z,38.17
2023-02-01T06:25:21.563Z,38.45
2023-02-01T06:28:28.006Z,36.88
2023-02-01T06:31:33.446Z,35.43
2023-02-01T06:34:38.389Z,35.17
2023-02-01T06:37:43.824Z,36.40
2023-02-01T06:40:50.232Z,34.95
2023-02-01T06:43:56.886Z,35.33
2023-02-01T06:47:02.990Z,36.35
2023-02-01T06:50:08.470Z,35.40
2023-02-01T06:53:14.708Z,35.17
2023-02-01T06:56:26.438Z,34.18
2023-02-01T06:59:31.981Z,36.58
2023-02-01T07:02:36.813Z,35.33
2023-02-01T07:05:43.296Z,32.93
2023-02-01T07:08:51.738Z,35.50
2023-02-01T07:11:58.381Z,36.95
2023-02-01T07:15:05.095Z,33.05
2023-02-01T07:18:11.639Z,35.80
2023-02-01T07:21:17.695Z,35.55
2023-02-01T07:24:22.787Z,33.95
2023-02-01T07:27:29.245Z,34.40
2023-02-01T07:30:36.359Z,35.98
2023-02-01T07:33:42.527Z,34.38
2023-02-01T07:36:49.832Z,30.55
2023-02-01T07:40:00.117Z,31.68
2023-02-01T07:43:06.978Z,28.27
2023-02-01T07:46:12.822Z,32.75
2023-02-01T07:49:20.614Z,26.12
2023-02-01T07:52:25.668Z,28.10
2023-02-01T07:55:33.149Z,28.60
2023-02-01T07:58:40.086Z,30.12
2023-02-01T08:01:45.794Z,29.40
2023-02-01T08:04:50.587Z,30.85
2023-02-01T08:07:56.045Z,31.48
2023-02-01T08:11:03.223Z,30.23
2023-02-01T08:14:08.730Z,31.10
2023-02-01T08:17:14.076Z,29.40
2023-02-01T08:20:19.600Z,27.87
2023-02-01T08:23:25.291Z,25.23
2023-02-01T08:26:36.141Z,27.07
2023-02-01T08:29:41.456Z,26.77
2023-02-01T08:32:46.884Z,25.77
2023-02-01T08:35:53.217Z,26.33
2023-02-01T08:38:59.729Z,27.87
2023-02-01T08:42:23.136Z,25.90
2023-02-01T08:45:52.193Z,23.40
2023-02-01T08:48:58.707Z,23.55
2023-02-01T08:52:10.638Z,22.45
2023-02-01T08:55:13.440Z,23.90
2023-02-01T08:58:22.130Z,22.22
2023-02-01T09:01:30.146Z,20.60
2023-02-01T09:04:35.686Z,20.77
2023-02-01T09:07:40.872Z,17.67
2023-02-01T09:10:46.902Z,18.00
2023-02-01T09:13:52.912Z,17.50
2023-02-01T09:16:59.684Z,17.52
2023-02-01T09:20:05.628Z,16.93
2023-02-01T09:23:13.973Z,17.00
2023-02-01T09:26:22.944Z,16.12
2023-02-01T09:29:30.684Z,16.70
2023-02-01T09:32:38.110Z,18.17
2023-02-01T09:35:46.402Z,16.60
2023-02-01T09:38:53.157Z,16.25
2023-02-01T09:42:24.895Z,18.48
2023-02-01T09:45:49.900Z,15.75
2023-02-01T09:48:55.710Z,14.40
2023-02-01T09:52:03.949Z,15.55
2023-02-01T09:55:15.996Z,16.67
2023-02-01T09:58:47.606Z,14.78
2023-02-01T10:01:52.995Z,12.20
2023-02-01T10:04:59.445Z,15.80
2023-02-01T10:08:18.304Z,13.35
2023-02-01T10:11:52.390Z,14.03
2023-02-01T10:15:32.669Z,15.20
2023-02-01T10:19:02.272Z,11.38
2023-02-01T10:22:41.042Z,10.32
2023-02-01T10:25:57.540Z,12.68
2023-02-01T10:28:50.996Z,11.35
2023-02-01T10:31:57.346Z,12.30
2023-02-01T10:35:14.587Z,11.88
2023-02-01T10:38:22.920Z,12.80
2023-02-01T10:41:37.355Z,12.47
2023-02-01T10:44:43.607Z,11.63
2023-02-01T10:47:49.311Z,10.82
2023-02-01T10:51:03.993Z,9.60
2023-02-01T10:53:59.755Z,10.63
2023-02-01T10:57:05.053Z,11.05
2023-02-01T11:00:11.998Z,10.55
2023-02-01T11:03:17.457Z,11.50
2023-02-01T11:06:30.476Z,10.72
2023-02-01T11:09:39.541Z,10.45
2023-02-01T11:12:49.729Z,10.75
2023-02-01T11:19:00.670Z,10.10
2023-02-01T11:22:11.233Z,12.23
2023-02-01T11:25:17.679Z,12.63
2023-02-01T11:28:23.802Z,12.00
2023-02-01T11:31:29.655Z,12.07
2023-02-01T11:34:37.415Z,10.93
2023-02-01T11:37:55.314Z,11.40
2023-02-01T11:41:00.986Z,11.45
2023-02-01T11:44:15.709Z,12.03
2023-02-01T11:47:42.314Z,12.95
2023-02-01T11:51:07.343Z,11.63
2023-02-01T11:54:46.879Z,11.08
2023-02-01T11:58:21.969Z,12.35
2023-02-01T12:01:49.310Z,12.25
2023-02-01T12:05:13.485Z,12.55
2023-02-01T12:08:35.982Z,12.88
2023-02-01T12:11:54.791Z,14.35
2023-02-01T12:15:25.542Z,15.32
2023-02-01T12:18:41.903Z,12.70
2023-02-01T12:22:01.416Z,15.68
2023-02-01T12:25:24.193Z,15.20
2023-02-01T12:29:22.499Z,16.20
2023-02-01T12:32:55.953Z,15.70
2023-02-01T12:36:25.071Z,15.48
2023-02-01T12:39:46.234Z,17.12
2023-02-01T12:43:25.565Z,17.27
2023-02-01T12:46:57.912Z,15.33
2023-02-01T12:50:12.154Z,13.13
2023-02-01T12:53:32.038Z,15.40
2023-02-01T12:56:54.038Z,16.87
2023-02-01T13:00:19.323Z,17.40
2023-02-01T13:04:08.374Z,16.52
2023-02-01T13:07:24.060Z,16.65
2023-02-01T13:10:51.394Z,16.70
2023-02-01T13:14:34.689Z,16.85
2023-02-01T13:17:43.172Z,16.55
2023-02-01T13:20:55.441Z,15.50
2023-02-01T13:24:03.458Z,14.87
2023-02-01T13:27:10.182Z,15.90
2023-02-01T13:30:25.896Z,17.10
2023-02-01T13:33:56.733Z,17.52
2023-02-01T13:37:35.201Z,18.50
2023-02-01T13:41:10.612Z,17.27
2023-02-01T13:44:23.001Z,20.77
2023-02-01T13:47:42.364Z,21.05
2023-02-01T13:50:52.820Z,17.25
2023-02-01T13:54:03.401Z,18.57
2023-02-01T13:57:09.323Z,17.70
2023-02-01T14:00:45.633Z,18.62
2023-02-01T14:04:02.635Z,21.50
2023-02-01T14:07:09.796Z,21.23
2023-02-01T14:10:52.896Z,19.42
2023-02-01T14:13:59.248Z,19.92
2023-02-01T14:17:18.837Z,21.15
2023-02-01T14:21:00.452Z,20.57
2023-02-01T14:24:14.890Z,19.55
2023-02-01T14:27:35.894Z,18.42
2023-02-01T14:30:41.634Z,19.07
2023-02-01T14:33:47.863Z,22.20
2023-02-01T14:37:00.383Z,21.40
2023-02-01T14:40:18.775Z,23.22
2023-02-01T14:43:32.617Z,20.45
2023-02-01T14:46:31.798Z,22.45
2023-02-01T14:49:37.416Z,24.15
2023-02-01T14:53:27.582Z,25.62
2023-02-01T14:56:33.607Z,22.37
2023-02-01T14:59:41.699Z,23.05
2023-02-01T15:02:47.750Z,21.90
2023-02-01T15:05:55.318Z,23.70
2023-02-01T15:09:02.447Z,23.62
2023-02-01T15:12:22.288Z,24.65
2023-02-01T15:15:39.610Z,25.15
2023-02-01T15:18:44.931Z,24.75
2023-02-01T15:21:59.193Z,28.47
2023-02-01T15:25:10.422Z,31.82
2023-02-01T15:28:16.099Z,28.47
2023-02-01T15:31:23.171Z,32.25
2023-02-01T15:34:28.658Z,30.27
2023-02-01T15:37:36.217Z,33.70
2023-02-01T15:40:42.198Z,29.85
2023-02-01T15:44:02.341Z,32.05
2023-02-01T15:47:08.460Z,32.97
2023-02-01T15:50:16.005Z,36.10
2023-02-01T15:53:18.517Z,36.85
2023-02-01T15:56:23.488Z,38.45
2023-02-01T15:59:32.558Z,39.05
2023-02-01T16:02:52.506Z,26.12
2023-02-01T16:05:58.630Z,29.12
2023-02-01T16:09:26.048Z,28.67
2023-02-01T16:12:44.186Z,28.85
2023-02-01T16:15:51.463Z,28.27
2023-02-01T16:18:57.547Z,28.40
2023-02-01T16:22:03.392Z,27.95
2023-02-01T16:25:02.699Z,34.20
2023-02-01T16:27:49.020Z,33.60
2023-02-01T16:30:41.906Z,38.80
2023-02-01T16:33:35.672Z,36.25
2023-02-01T16:36:41.750Z,25.02
2023-02-01T16:39:48.786Z,35.45
2023-02-01T16:42:55.825Z,30.60
2023-02-01T16:46:03.830Z,35.75
2023-02-01T16:49:12.204Z,31.57
2023-02-01T16:52:17.143Z,32.23
2023-02-01T16:55:31.839Z,30.48
2023-02-01T16:58:38.467Z,30.75
2023-02-01T17:01:49.772Z,34.45
2023-02-01T17:04:56.802Z,48.42
2023-02-01T17:08:03.412Z,42.73
2023-02-01T17:11:09.018Z,36.03
2023-02-01T17:14:33.653Z,33.67
2023-02-01T17:17:40.241Z,35.45
2023-02-01T17:20:47.935Z,30.62
2023-02-01T17:23:54.257Z,30.45
2023-02-01T17:27:00.449Z,34.63
2023-02-01T17:30:07.240Z,29.25
2023-02-01T17:33:21.821Z,32.25
2023-02-01T17:36:20.682Z,32.05
2023-02-01T17:39:43.029Z,29.50
2023-02-01T17:42:48.924Z,29.35
2023-02-01T17:46:09.888Z,29.12
2023-02-01T17:49:15.184Z,30.72
2023-02-01T17:52:23.594Z,29.90
2023-02-01T17:55:36.839Z,28.32
2023-02-01T17:58:42.623Z,26.02
2023-02-01T18:01:48.835Z,27.67
2023-02-01T18:04:47.364Z,25.92
2023-02-01T18:07:53.880Z,27.67
2023-02-01T18:11:01.422Z,28.30
2023-02-01T18:14:08.137Z,31.82
2023-02-01T18:17:14.159Z,38.15
2023-02-01T18:20:22.841Z,32.13
2023-02-01T18:23:34.118Z,30.65
2023-02-01T18:26:39.824Z,32.30
2023-02-01T18:29:46.073Z,31.87
2023-02-01T18:32:52.528Z,30.82
2023-02-01T18:35:52.294Z,34.53
2023-02-01T18:38:58.061Z,28.57
2023-02-01T18:42:04.341Z,27.87
2023-02-01T18:45:10.277Z,28.25
2023-02-01T18:48:19.791Z,29.02
2023-02-01T18:51:27.831Z,28.50
2023-02-01T18:54:32.882Z,35.20
2023-02-01T18:57:40.582Z,31.45
2023-02-01T19:00:46.130Z,28.10
2023-02-01T19:03:55.494Z,29.15
2023-02-01T19:07:01.461Z,30.80
2023-02-01T19:10:08.344Z,32.23
2023-02-01T19:13:14.895Z,30.17
2023-02-01T19:16:26.166Z,27.62
2023-02-01T19:19:31.810Z,26.07
2023-02-01T19:22:37.893Z,32.70
2023-02-01T19:25:37.228Z,28.35
2023-02-01T19:28:44.334Z,31.48
2023-02-01T19:31:51.188Z,32.65
2023-02-01T19:34:57.763Z,28.07
2023-02-01T19:38:04.549Z,26.05
2023-02-01T19:41:13.583Z,26.62
2023-02-01T19:44:12.674Z,26.42
2023-02-01T19:47:20.263Z,24.30
2023-02-01T19:50:31.826Z,26.70
2023-02-01T19:53:38.168Z,28.73
2023-02-01T19:56:44.150Z,26.52
2023-02-01T19:59:51.086Z,29.48
2023-02-01T20:02:56.138Z,29.65
2023-02-01T20:06:07.565Z,29.32
2023-02-01T20:09:12.938Z,30.02
2023-02-01T20:12:19.085Z,29.98
2023-02-01T20:15:25.801Z,27.70
2023-02-01T20:18:31.802Z,27.77
2023-02-01T20:21:37.627Z,31.10
2023-02-01T20:24:42.961Z,31.42
2023-02-01T20:27:49.961Z,31.82
2023-02-01T20:31:01.097Z,31.35
2023-02-01T20:34:07.222Z,28.93
2023-02-01T20:37:13.808Z,29.30
2023-02-01T20:40:20.766Z,29.87
2023-02-01T20:43:26.143Z,29.75
2023-02-01T20:46:32.473Z,27.48
2023-02-01T20:49:39.038Z,29.35
2023-02-01T20:52:44.838Z,25.72
2023-02-01T20:55:49.939Z,28.12
2023-02-01T20:58:55.759Z,26.87
2023-02-01T21:02:02.209Z,29.52
2023-02-01T21:05:07.941Z,29.07
2023-02-01T21:08:13.390Z,27.85
2023-02-01T21:11:25.790Z,27.17
2023-02-01T21:14:30.751Z,34.08
2023-02-01T21:17:35.849Z,31.05
2023-02-01T21:20:43.309Z,29.65
2023-02-01T21:23:56.476Z,29.27
2023-02-01T21:27:02.821Z,27.73
2023-02-01T21:30:08.803Z,28.83
2023-02-01T21:33:15.325Z,27.73
2023-02-01T21:36:23.414Z,25.02
2023-02-01T21:39:29.436Z,26.27
2023-02-01T21:42:35.937Z,26.95
2023-02-01T21:45:46.122Z,27.75
2023-02-01T21:49:04.418Z,27.48
2023-02-01T21:51:56.773Z,26.97
2023-02-01T21:55:06.350Z,28.55
2023-02-01T21:58:13.697Z,29.57
2023-02-01T22:01:18.922Z,27.55
2023-02-01T22:04:25.502Z,27.17
2023-02-01T22:07:33.009Z,29.75
2023-02-01T22:10:38.212Z,28.62
2023-02-01T22:13:43.989Z,26.40
2023-02-01T22:16:49.507Z,28.20
2023-02-01T22:19:54.753Z,29.15
2023-02-01T22:23:03.319Z,28.60
2023-02-01T22:26:18.063Z,25.50
2023-02-01T22:29:24.813Z,29.27
2023-02-01T22:32:32.321Z,24.13
2023-02-01T22:35:37.099Z,24.07
2023-02-01T22:38:44.312Z,25.27
2023-02-01T22:41:50.012Z,28.17
2023-02-01T22:44:55.742Z,25.90
2023-02-01T22:48:03.554Z,27.85
2023-02-01T22:51:14.104Z,31.12
2023-02-01T22:54:20.348Z,24.52
2023-02-01T22:57:25.835Z,25.90
2023-02-01T23:00:31.840Z,23.80
2023-02-01T23:03:38.710Z,25.97
2023-02-01T23:06:51.277Z,27.02
2023-02-01T23:09:58.143Z,29.02
2023-02-01T23:13:03.606Z,24.55
2023-02-01T23:16:09.535Z,24.90
2023-02-01T23:19:14.849Z,27.58
2023-02-01T23:22:20.730Z,23.80
2023-02-01T23:25:27.951Z,26.12
2023-02-01T23:28:33.720Z,27.85
2023-02-01T23:31:44.162Z,25.92
2023-02-01T23:34:49.673Z,26.48
2023-02-01T23:37:56.242Z,24.02
2023-02-01T23:41:02.017Z,26.12
2023-02-01T23:44:08.585Z,25.80
2023-02-01T23:47:08.169Z,24.60
2023-02-01T23:50:13.501Z,26.23
2023-02-01T23:53:19.458Z,22.87
2023-02-01T23:56:43.514Z,26.48
2023-02-01T23:59:50.679Z,25.12
